Accueil
METAR-TAF:

METAR-TAF

Aéroports :

Cannes, France

Aéroport de Cannes - Mandelieu

latitude: 43-33N, longitude: 006-57E, altitude: 3 m

Observation

Le bulletin a été fait il y a 38 minutes, à 19:00 UTC
Vent 1 kt de direction variable
Température 19°C
Humidité 88%
Pression 1015 hPa
Visibilité 10 km ou plus
pas de nuages en-dessous de 1500 mètres et pas de cumulonimbus.

METAR: LFMD 241900Z AUTO VRB01KT CAVOK 19/17 Q1015 TEMPO 3000 BR BKN005

Heure: 21:38 (19:38 UTC)

Prévision

Le bulletin a été fait il y a 5 heures et 38 minutes, à 14:00 UTC
Prévision valable du 24 à 15 UTC au 25 à 15 UTC
Vent 7 kt de sud/sud-est
Visibilité 10 km ou plus
pas de nuages en-dessous de 1500 mètres et pas de cumulonimbus.
Probabilité 40% :
Temporairement
du 24 à 15 UTC au 25 à 12 UTC
Visibilité: 3000 m
Nuages fragmentés à une hauteur de 500 ft
brume

TAF: LFMD 241400Z 2415/2515 16007KT CAVOK PROB40 TEMPO 2415/2512 3000 BR BKN005

Observations et prévisions météorologiques de plus de 4000 aéroports (messages METAR et TAF).

Les stations disponibles sont représentées par des disques jaunes et rouges sur la carte.

Passer la souris dessus pour voir le nom de la station.

Cliquer dessus pour voir les observations et prévisions météorologiques.

Pour changer de carte: cliquez sur les boutons verts avec une croix noire pour zoomer, sur le bouton vert avec un tiret pour effectuer un zoom arrière, ou sur les flèches vertes pour les cartes adjacentes.


METAR-TAF: